This is the latest recevied weather packets stored in our database for station/object AI9F. If no packets are shown the sender has not sent any weather packets the latest 10 day(s).
| Time | Temp. | Humidity | Pressure | Rain* | Wind** | Luminosity | Snow |
|---|---|---|---|---|---|---|---|
| 1777479267 | 17.22° C | 62% | 1015.3 hPa | 0 mm | - | 753 W/m² | - |
| 1777478963 | 16.67° C | 64% | 1015.2 hPa | 0 mm | - | 747 W/m² | - |
| 1777478660 | 16.67° C | 66% | 1015.2 hPa | 0 mm | - | 538 W/m² | - |
| 1777478356 | 16.67° C | 68% | 1015.2 hPa | 0 mm | - | 651 W/m² | - |
| 1777478053 | 16.67° C | 69% | 1015.3 hPa | 0 mm | - | 158 W/m² | - |
| 1777477749 | 16.67° C | 70% | 1015.3 hPa | 0 mm | - | 338 W/m² | - |
| 1777477445 | 16.67° C | 69% | 1015.4 hPa | 0 mm | - | 151 W/m² | - |
| 1777477142 | 16.11° C | 68% | 1015.1 hPa | 0 mm | - | 79 W/m² | - |
| 1777476838 | 16.67° C | 65% | 1015.2 hPa | 0 mm | - | 75 W/m² | - |
| 1777476535 | 16.67° C | 72% | 1015 hPa | 0 mm | - | 80 W/m² | - |
| 1777476232 | 16.11° C | 70% | 1014.8 hPa | 0 mm | - | 79 W/m² | - |
| 1777475928 | 16.11° C | 73% | 1014.7 hPa | 0 mm | - | 101 W/m² | - |
| 1777475624 | 16.11° C | 73% | 1014.7 hPa | 0 mm | - | 99 W/m² | - |
| 1777475321 | 16.67° C | 73% | 1014.8 hPa | 0 mm | - | 62 W/m² | - |
| 1777475016 | 16.11° C | 73% | 1014.7 hPa | 0 mm | - | 85 W/m² | - |
| 1777474713 | 16.11° C | 77% | 1014.6 hPa | 0 mm | - | 85 W/m² | - |
| 1777474409 | 15.56° C | 77% | 1014.4 hPa | 0 mm | - | 69 W/m² | - |
| 1777474106 | 15.56° C | 75% | 1014.3 hPa | 0 mm | - | 76 W/m² | - |
| 1777473803 | 15.56° C | 76% | 1014.5 hPa | 0 mm | - | 127 W/m² | - |
| 1777473500 | 15.56° C | 80% | 1014.6 hPa | 0 mm | - | 125 W/m² | - |
| 1777473195 | 15.56° C | 79% | 1014.4 hPa | 0 mm | - | 69 W/m² | - |
| 1777472893 | 15.56° C | 77% | 1014.4 hPa | 0 mm | - | 116 W/m² | - |
| 1777472589 | 15.56° C | 77% | 1014.7 hPa | 0 mm | - | 83 W/m² | - |
| 1777472286 | 15.56° C | 81% | 1014.6 hPa | 0 mm | - | 96 W/m² | - |
| 1777471982 | 15° C | 81% | 1014.4 hPa | 0 mm | - | 79 W/m² | - |
* Rain latest hour (hover to see other rain measurements)
** Current wind speed in m/s (hover to see current wind gust speed)